createdAt,value
2023-04-17T00:01:40.625Z,100493.50
2023-04-17T00:04:11.343Z,100488.41
2023-04-17T00:06:43.455Z,100483.91
2023-04-17T00:09:11.953Z,100478.56
2023-04-17T00:11:39.309Z,100485.75
2023-04-17T00:14:06.692Z,100484.16
2023-04-17T00:16:33.872Z,100475.47
2023-04-17T00:19:01.029Z,100479.94
2023-04-17T00:21:29.875Z,100469.63
2023-04-17T00:23:57.076Z,100468.66
2023-04-17T00:26:24.410Z,100459.94
2023-04-17T00:28:51.968Z,100452.31
2023-04-17T00:31:19.361Z,100448.53
2023-04-17T00:33:46.597Z,100454.63
2023-04-17T00:36:15.398Z,100452.19
2023-04-17T00:38:42.678Z,100447.56
2023-04-17T00:41:10.036Z,100447.56
2023-04-17T00:43:37.483Z,100432.06
2023-04-17T00:46:05.011Z,100437.13
2023-04-17T00:48:33.113Z,100430.94
2023-04-17T00:51:03.352Z,100423.22
2023-04-17T00:53:31.188Z,100424.19
2023-04-17T00:56:03.536Z,100423.34
2023-04-17T00:58:30.954Z,100413.50
2023-04-17T01:00:58.329Z,100415.19
2023-04-17T01:03:25.668Z,100404.16
2023-04-17T01:05:53.075Z,100403.66
2023-04-17T01:08:20.318Z,100404.50
2023-04-17T01:10:47.887Z,100397.34
2023-04-17T01:13:14.932Z,100385.94
2023-04-17T01:15:43.667Z,100383.25
2023-04-17T01:18:11.327Z,100375.50
2023-04-17T01:20:38.450Z,100378.16
2023-04-17T01:23:05.832Z,100383.78
2023-04-17T01:25:33.789Z,100373.22
2023-04-17T01:28:01.303Z,100369.72
2023-04-17T01:30:29.636Z,100370.44
2023-04-17T01:33:06.086Z,100369.72
2023-04-17T01:35:33.165Z,100372.63
2023-04-17T01:38:00.349Z,100369.84
2023-04-17T01:40:27.991Z,100363.41
2023-04-17T01:42:55.035Z,100366.06
2023-04-17T01:45:22.116Z,100356.50
2023-04-17T01:47:50.815Z,100365.47
2023-04-17T01:50:18.121Z,100348.16
2023-04-17T01:52:45.534Z,100353.50
2023-04-17T01:55:12.762Z,100355.31
2023-04-17T01:57:39.788Z,100348.25
2023-04-17T02:00:08.236Z,100344.63
2023-04-17T02:02:39.757Z,100341.22
2023-04-17T02:05:07.510Z,100356.91
2023-04-17T02:07:34.610Z,100349.00
2023-04-17T02:10:01.748Z,100345.50
2023-04-17T02:12:28.762Z,100333.06
2023-04-17T02:15:00.877Z,100335.19
2023-04-17T02:17:28.037Z,100330.94
2023-04-17T02:19:55.344Z,100324.75
2023-04-17T02:22:22.482Z,100327.44
2023-04-17T02:24:49.568Z,100320.50
2023-04-17T02:27:17.417Z,100317.16
2023-04-17T02:29:44.464Z,100316.31
2023-04-17T02:32:11.544Z,100318.38
2023-04-17T02:34:38.603Z,100318.38
2023-04-17T02:37:07.171Z,100314.28
2023-04-17T02:39:36.237Z,100312.72
2023-04-17T02:42:03.414Z,100309.81
2023-04-17T02:44:30.701Z,100305.69
2023-04-17T02:46:58.098Z,100303.03
2023-04-17T02:49:26.820Z,100297.81
2023-04-17T02:51:54.085Z,100303.13
2023-04-17T02:57:22.191Z,100289.78
2023-04-17T02:59:51.518Z,100294.16
2023-04-17T03:02:22.073Z,100295.84
2023-04-17T03:04:50.561Z,100286.16
2023-04-17T03:07:19.886Z,100287.00
2023-04-17T03:09:47.344Z,100287.13
2023-04-17T03:12:15.241Z,100281.78
2023-04-17T03:14:42.679Z,100270.28
2023-04-17T03:17:10.741Z,100275.47
2023-04-17T03:19:38.060Z,100270.13
2023-04-17T03:22:05.782Z,100261.44
2023-04-17T03:24:33.495Z,100256.34
2023-04-17T03:27:02.342Z,100260.13
2023-04-17T03:29:36.899Z,100252.28
2023-04-17T03:32:04.455Z,100265.63
2023-04-17T03:34:33.139Z,100256.75
2023-04-17T03:37:00.500Z,100254.22
2023-04-17T03:39:29.795Z,100252.53
2023-04-17T03:41:56.843Z,100243.66
2023-04-17T03:44:24.016Z,100252.53
2023-04-17T03:46:51.069Z,100249.84
2023-04-17T03:49:18.355Z,100243.91
2023-04-17T03:51:45.933Z,100254.34
2023-04-17T03:54:18.236Z,100242.56
2023-04-17T03:56:48.146Z,100243.41
2023-04-17T03:59:15.294Z,100237.59
2023-04-17T04:01:46.898Z,100234.09
2023-04-17T04:04:20.487Z,100225.66
2023-04-17T04:06:49.901Z,100230.00
2023-04-17T04:09:20.349Z,100227.88
2023-04-17T04:11:47.472Z,100230.66
2023-04-17T04:14:14.741Z,100228.13
2023-04-17T04:16:42.254Z,100221.63
2023-04-17T04:19:12.188Z,100216.56
2023-04-17T04:21:39.539Z,100214.88
2023-04-17T04:24:10.238Z,100205.91
2023-04-17T04:26:40.905Z,100207.13
2023-04-17T04:29:09.548Z,100206.69
2023-04-17T04:31:50.834Z,100200.38
2023-04-17T04:34:21.668Z,100199.06
2023-04-17T04:36:51.786Z,100206.09
2023-04-17T04:39:34.221Z,100194.44
2023-04-17T04:42:06.191Z,100199.66
2023-04-17T04:44:44.503Z,100181.94
2023-04-17T04:47:11.920Z,100193.47
2023-04-17T04:49:39.203Z,100194.31
2023-04-17T04:52:06.643Z,100199.66
2023-04-17T04:54:34.543Z,100195.41
2023-04-17T04:57:02.464Z,100195.56
2023-04-17T04:59:29.514Z,100201.22
2023-04-17T05:02:12.807Z,100192.09
2023-04-17T05:04:40.203Z,100205.59
2023-04-17T05:07:07.633Z,100209.78
2023-04-17T05:09:36.198Z,100206.03
2023-04-17T05:12:04.546Z,100205.63
2023-04-17T05:14:31.690Z,100208.72
2023-04-17T05:16:58.901Z,100204.84
2023-04-17T05:19:27.444Z,100202.88
2023-04-17T05:21:59.439Z,100204.28
2023-04-17T05:24:26.623Z,100208.66
2023-04-17T05:26:54.105Z,100203.19
2023-04-17T05:29:21.187Z,100211.06
2023-04-17T05:31:48.260Z,100214.56
2023-04-17T05:34:44.325Z,100197.31
2023-04-17T05:37:11.443Z,100216.72
2023-04-17T05:39:38.911Z,100212.06
2023-04-17T05:42:08.181Z,100214.34
2023-04-17T05:44:35.324Z,100208.91
2023-04-17T05:47:03.472Z,100219.41
2023-04-17T05:49:31.071Z,100212.72
2023-04-17T05:51:58.287Z,100208.19
2023-04-17T05:54:25.434Z,100205.25
2023-04-17T05:56:53.094Z,100211.31
2023-04-17T05:59:21.099Z,100216.38
2023-04-17T06:01:48.767Z,100208.81
2023-04-17T06:04:19.980Z,100213.66
2023-04-17T06:06:48.894Z,100213.38
2023-04-17T06:09:16.464Z,100221.13
2023-04-17T06:11:43.541Z,100226.19
2023-04-17T06:14:10.869Z,100230.03
2023-04-17T06:16:38.809Z,100222.25
2023-04-17T06:19:05.849Z,100219.88
2023-04-17T06:21:32.893Z,100228.75
2023-04-17T06:24:01.040Z,100233.69
2023-04-17T06:26:28.181Z,100229.06
2023-04-17T06:28:55.767Z,100239.94
2023-04-17T06:31:23.954Z,100234.72
2023-04-17T06:33:51.639Z,100247.81
2023-04-17T06:36:23.374Z,100242.31
2023-04-17T06:38:54.706Z,100240.34
2023-04-17T06:41:22.459Z,100238.66
2023-04-17T06:43:49.658Z,100248.53
2023-04-17T06:46:16.803Z,100240.94
2023-04-17T06:48:43.942Z,100241.34
2023-04-17T06:51:11.106Z,100243.88
2023-04-17T06:53:38.164Z,100241.63
2023-04-17T06:56:05.366Z,100242.06
2023-04-17T06:58:33.178Z,100251.91
2023-04-17T07:01:00.229Z,100247.00
2023-04-17T07:03:27.492Z,100257.16
2023-04-17T07:05:54.649Z,100259.38
2023-04-17T07:08:22.554Z,100255.59
2023-04-17T07:10:49.746Z,100257.25
2023-04-17T07:13:16.815Z,100266.41
2023-04-17T07:15:43.973Z,100262.63
2023-04-17T07:18:11.459Z,100268.66
2023-04-17T07:20:38.582Z,100276.81
2023-04-17T07:23:05.699Z,100291.31
2023-04-17T07:25:32.741Z,100302.00
2023-04-17T07:27:59.830Z,100295.25
2023-04-17T07:30:27.135Z,100297.47
2023-04-17T07:32:54.407Z,100328.34
2023-04-17T07:35:22.468Z,100321.84
2023-04-17T07:37:49.605Z,100349.69
2023-04-17T07:40:16.903Z,100347.09
2023-04-17T07:42:44.084Z,100355.22
2023-04-17T07:45:11.433Z,100360.41
2023-04-17T07:47:38.613Z,100360.06
2023-04-17T07:50:06.222Z,100362.75
2023-04-17T07:52:33.371Z,100362.31
2023-04-17T07:55:00.450Z,100383.00
2023-04-17T07:57:27.565Z,100381.41
2023-04-17T07:59:54.694Z,100385.53
2023-04-17T08:02:23.058Z,100396.53
2023-04-17T08:04:52.300Z,100377.63
2023-04-17T08:07:20.245Z,100373.72
2023-04-17T08:09:47.332Z,100394.13
2023-04-17T08:12:14.469Z,100391.47
2023-04-17T08:14:42.035Z,100426.91
2023-04-17T08:17:09.270Z,100453.94
2023-04-17T08:19:36.353Z,100489.19
2023-04-17T08:22:04.384Z,100485.31
2023-04-17T08:24:31.848Z,100426.78
2023-04-17T08:26:58.976Z,100405.47
2023-04-17T08:29:26.303Z,100395.91
2023-04-17T08:32:00.229Z,100393.16
2023-04-17T08:34:38.763Z,100386.09
2023-04-17T08:37:05.839Z,100444.13
2023-04-17T08:39:32.986Z,100450.25
2023-04-17T08:42:03.421Z,100414.88
2023-04-17T08:44:30.552Z,100443.59
2023-04-17T08:47:00.943Z,100460.63
2023-04-17T08:49:29.045Z,100478.28
2023-04-17T08:51:56.264Z,100479.50
2023-04-17T08:54:23.332Z,100490.66
2023-04-17T08:56:50.537Z,100481.97
2023-04-17T09:01:59.276Z,100490.03
2023-04-17T09:04:40.145Z,100478.31
2023-04-17T09:07:08.435Z,100480.22
2023-04-17T09:09:47.760Z,100485.78
2023-04-17T09:12:15.021Z,100479.34
2023-04-17T09:14:42.286Z,100482.63
2023-04-17T09:17:09.409Z,100488.72
2023-04-17T09:19:36.636Z,100493.94
2023-04-17T09:22:20.008Z,100499.84
2023-04-17T09:24:48.141Z,100497.56
2023-04-17T09:27:24.346Z,100512.66
2023-04-17T09:30:01.655Z,100504.91
2023-04-17T09:32:30.222Z,100513.50
2023-04-17T09:34:58.182Z,100520.19
2023-04-17T09:37:25.720Z,100531.47
2023-04-17T09:39:57.679Z,100532.78
2023-04-17T09:42:24.988Z,100527.31
2023-04-17T09:44:52.966Z,100545.69
2023-04-17T09:47:20.631Z,100553.97
2023-04-17T09:49:55.999Z,100533.06
2023-04-17T09:52:23.803Z,100560.06
2023-04-17T09:54:53.968Z,100566.28
2023-04-17T09:57:21.412Z,100571.50
2023-04-17T09:59:48.982Z,100591.13
2023-04-17T10:02:18.188Z,100577.78
2023-04-17T10:04:46.269Z,100586.19
2023-04-17T10:07:14.024Z,100598.41
2023-04-17T10:09:41.994Z,100614.16
2023-04-17T10:12:13.950Z,100596.31
2023-04-17T10:14:44.041Z,100599.84
2023-04-17T10:17:23.891Z,100603.78
2023-04-17T10:19:51.290Z,100586.28
2023-04-17T10:22:18.386Z,100599.47
2023-04-17T10:24:47.355Z,100610.47
2023-04-17T10:27:31.092Z,100616.22
2023-04-17T10:29:59.135Z,100597.63
2023-04-17T10:32:28.956Z,100611.00
2023-04-17T10:35:00.894Z,100609.75
2023-04-17T10:37:46.847Z,100601.91
2023-04-17T10:40:20.665Z,100592.91
2023-04-17T10:43:04.352Z,100593.31
2023-04-17T10:45:50.260Z,100584.06
2023-04-17T10:48:28.379Z,100581.25
2023-04-17T10:50:56.140Z,100597.34
2023-04-17T10:53:40.379Z,100609.56
2023-04-17T10:56:08.067Z,100610.78
2023-04-17T10:58:56.666Z,100622.22
2023-04-17T11:01:26.098Z,100634.34
2023-04-17T11:03:53.907Z,100640.19
2023-04-17T11:06:21.135Z,100630.19
2023-04-17T11:08:48.593Z,100640.63
2023-04-17T11:11:21.002Z,100636.69
2023-04-17T11:13:57.803Z,100625.09
2023-04-17T11:16:24.977Z,100631.31
2023-04-17T11:18:52.158Z,100644.91
2023-04-17T11:21:19.219Z,100635.06
2023-04-17T11:23:51.135Z,100644.91
2023-04-17T11:26:18.713Z,100646.84
2023-04-17T11:28:45.831Z,100653.47
2023-04-17T11:31:13.595Z,100655.56
2023-04-17T11:33:40.946Z,100662.72
2023-04-17T11:36:08.186Z,100687.19
2023-04-17T11:38:35.585Z,100690.06
2023-04-17T11:41:02.856Z,100708.06
2023-04-17T11:43:34.934Z,100697.22
2023-04-17T11:46:02.828Z,100685.06
2023-04-17T11:48:30.226Z,100689.78
2023-04-17T11:50:58.510Z,100682.69
2023-04-17T11:53:25.662Z,100675.69
2023-04-17T11:56:11.868Z,100697.22
2023-04-17T11:58:45.920Z,100675.63
2023-04-17T12:01:13.419Z,100691.47
2023-04-17T12:03:41.861Z,100693.69
2023-04-17T12:06:11.984Z,100690.00
2023-04-17T12:08:45.056Z,100699.53
2023-04-17T12:11:15.488Z,100679.38
2023-04-17T12:13:42.620Z,100687.91
2023-04-17T12:16:10.034Z,100688.78
2023-04-17T12:18:37.136Z,100702.38
2023-04-17T12:21:04.391Z,100698.84
2023-04-17T12:23:31.434Z,100708.84
2023-04-17T12:25:58.512Z,100727.41
2023-04-17T12:28:25.648Z,100702.81
2023-04-17T12:30:52.761Z,100715.69
2023-04-17T12:33:19.840Z,100681.19
2023-04-17T12:35:46.997Z,100654.06
2023-04-17T12:38:14.085Z,100656.03
2023-04-17T12:40:43.297Z,100647.88
2023-04-17T12:43:11.332Z,100639.03
2023-04-17T12:45:39.876Z,100622.09
2023-04-17T12:48:09.309Z,100578.84
2023-04-17T12:50:42.209Z,100591.59
2023-04-17T12:53:09.972Z,100584.59
2023-04-17T12:55:41.146Z,100568.38
2023-04-17T12:58:10.093Z,100570.91
2023-04-17T13:00:37.956Z,100543.50
2023-04-17T13:03:05.675Z,100579.81
2023-04-17T13:05:33.116Z,100546.41
2023-04-17T13:08:00.484Z,100547.53
2023-04-17T13:10:27.989Z,100537.28
2023-04-17T13:12:55.151Z,100517.63
2023-04-17T13:15:22.386Z,100525.25
2023-04-17T13:17:49.447Z,100503.94
2023-04-17T13:20:16.545Z,100499.50
2023-04-17T13:22:43.624Z,100488.22
2023-04-17T13:25:10.677Z,100460.22
2023-04-17T13:27:37.798Z,100452.75
2023-04-17T13:30:05.129Z,100432.88
2023-04-17T13:32:32.334Z,100422.50
2023-04-17T13:34:59.381Z,100407.81
2023-04-17T13:37:26.543Z,100371.38
2023-04-17T13:39:53.810Z,100347.03
2023-04-17T13:42:21.085Z,100338.09
2023-04-17T13:44:49.396Z,100305.72
2023-04-17T13:47:16.486Z,100302.72
2023-04-17T13:49:43.621Z,100276.44
2023-04-17T13:52:10.785Z,100273.97
2023-04-17T13:54:37.818Z,100295.00
2023-04-17T13:57:05.540Z,100297.34
2023-04-17T13:59:32.559Z,100256.25
2023-04-17T14:02:01.611Z,100251.03
2023-04-17T14:04:29.040Z,100249.00
2023-04-17T14:06:56.558Z,100270.66
2023-04-17T14:09:23.737Z,100305.94
2023-04-17T14:11:50.959Z,100325.31
2023-04-17T14:14:17.972Z,100346.38
2023-04-17T14:16:47.317Z,100357.19
2023-04-17T14:19:15.069Z,100380.38
2023-04-17T14:21:42.639Z,100375.56
2023-04-17T14:24:09.720Z,100386.94
2023-04-17T14:26:37.583Z,100402.72
2023-04-17T14:29:04.765Z,100414.03
2023-04-17T14:31:31.930Z,100414.47
2023-04-17T14:33:59.096Z,100419.34
2023-04-17T14:36:26.324Z,100417.19
2023-04-17T14:38:54.214Z,100420.88
2023-04-17T14:41:21.434Z,100414.88
2023-04-17T14:43:48.564Z,100411.44
2023-04-17T14:46:15.770Z,100406.28
2023-04-17T14:48:54.678Z,100410.78
2023-04-17T14:51:23.399Z,100401.31
2023-04-17T14:53:51.215Z,100411.34
2023-04-17T14:56:18.810Z,100418.56
2023-04-17T14:58:45.916Z,100413.56
2023-04-17T15:01:13.142Z,100416.09
2023-04-17T15:03:40.580Z,100416.53
2023-04-17T15:06:08.818Z,100423.59
2023-04-17T15:08:35.912Z,100427.84
2023-04-17T15:11:02.954Z,100433.63
2023-04-17T15:13:29.992Z,100439.00
2023-04-17T15:15:57.222Z,100444.94
2023-04-17T15:18:24.415Z,100452.38
2023-04-17T15:20:51.481Z,100445.78
2023-04-17T15:23:18.863Z,100452.28
2023-04-17T15:25:45.912Z,100452.66
2023-04-17T15:28:12.977Z,100468.63
2023-04-17T15:30:40.078Z,100469.63
2023-04-17T15:33:09.233Z,100471.63
2023-04-17T15:35:37.704Z,100468.38
2023-04-17T15:38:06.128Z,100475.91
2023-04-17T15:40:33.828Z,100474.66
2023-04-17T15:43:01.429Z,100473.97
2023-04-17T15:45:28.515Z,100470.94
2023-04-17T15:47:56.250Z,100470.13
2023-04-17T15:50:23.476Z,100472.69
2023-04-17T15:52:50.854Z,100499.50
2023-04-17T15:55:17.978Z,100515.28
2023-04-17T15:57:45.082Z,100518.38
2023-04-17T16:00:12.428Z,100523.44
2023-04-17T16:02:39.680Z,100529.53
2023-04-17T16:05:07.093Z,100537.56
2023-04-17T16:07:34.156Z,100535.47
2023-04-17T16:10:01.228Z,100530.38
2023-04-17T16:12:28.398Z,100533.91
2023-04-17T16:14:55.462Z,100531.56
2023-04-17T16:17:22.579Z,100541.44
2023-04-17T16:19:50.704Z,100534.38
2023-04-17T16:22:18.395Z,100525.53
2023-04-17T16:24:45.518Z,100526.53
2023-04-17T16:27:12.563Z,100526.06
2023-04-17T16:29:39.614Z,100542.16
2023-04-17T16:32:06.701Z,100545.09
2023-04-17T16:34:33.756Z,100540.88
2023-04-17T16:37:00.891Z,100551.56
2023-04-17T16:39:27.946Z,100551.72
2023-04-17T16:41:56.220Z,100559.50
2023-04-17T16:44:25.129Z,100555.09
2023-04-17T16:47:12.014Z,100564.00
2023-04-17T16:49:39.184Z,100539.44
2023-04-17T16:52:06.316Z,100553.69
2023-04-17T16:54:33.351Z,100563.44
2023-04-17T16:57:00.628Z,100567.41
2023-04-17T16:59:27.698Z,100559.66
2023-04-17T17:01:54.825Z,100566.56
2023-04-17T17:04:21.959Z,100566.97
2023-04-17T17:06:49.106Z,100560.38
2023-04-17T17:09:16.325Z,100571.09
2023-04-17T17:11:43.379Z,100569.56
2023-04-17T17:14:10.472Z,100569.00
2023-04-17T17:16:37.626Z,100571.69
2023-04-17T17:19:05.900Z,100573.50
2023-04-17T17:21:33.001Z,100568.59
2023-04-17T17:24:00.594Z,100584.81
2023-04-17T17:26:27.635Z,100576.06
2023-04-17T17:28:55.960Z,100564.94
2023-04-17T17:31:23.199Z,100560.28
2023-04-17T17:33:52.881Z,100565.06
2023-04-17T17:36:21.641Z,100562.25
2023-04-17T17:38:55.591Z,100554.63
2023-04-17T17:41:23.636Z,100534.88
2023-04-17T17:43:50.897Z,100541.06
2023-04-17T17:46:19.433Z,100533.75
2023-04-17T17:48:46.651Z,100520.78
2023-04-17T17:51:13.764Z,100517.81
2023-04-17T17:53:41.387Z,100526.97
2023-04-17T17:56:08.482Z,100526.56
2023-04-17T17:58:35.541Z,100522.91
2023-04-17T18:01:02.868Z,100515.44
2023-04-17T18:03:30.084Z,100523.72
2023-04-17T18:05:57.571Z,100514.97
2023-04-17T18:08:24.665Z,100513.56
2023-04-17T18:10:51.756Z,100512.16
2023-04-17T18:13:18.879Z,100514.53
2023-04-17T18:15:46.000Z,100520.19
2023-04-17T18:18:13.077Z,100523.56
2023-04-17T18:20:40.461Z,100523.41
2023-04-17T18:23:07.588Z,100518.63
2023-04-17T18:25:35.950Z,100518.22
2023-04-17T18:28:03.818Z,100513.69
2023-04-17T18:30:30.993Z,100534.16
2023-04-17T18:32:58.141Z,100533.69
2023-04-17T18:35:25.255Z,100525.78
2023-04-17T18:37:53.095Z,100529.16
2023-04-17T18:40:20.392Z,100527.50
2023-04-17T18:42:47.512Z,100530.56
2023-04-17T18:45:15.943Z,100532.69
2023-04-17T18:47:43.427Z,100547.75
2023-04-17T18:50:11.430Z,100529.25
2023-04-17T18:52:39.994Z,100535.19
2023-04-17T18:55:07.702Z,100535.28
2023-04-17T18:57:34.840Z,100535.81
2023-04-17T19:00:01.915Z,100532.28
2023-04-17T19:02:29.175Z,100537.75
2023-04-17T19:04:56.534Z,100536.31
2023-04-17T19:07:23.661Z,100550.41
2023-04-17T19:09:50.698Z,100552.78
2023-04-17T19:12:17.819Z,100546.00
2023-04-17T19:14:44.922Z,100548.94
2023-04-17T19:17:12.704Z,100552.06
2023-04-17T19:19:39.781Z,100545.28
2023-04-17T19:22:06.870Z,100554.16
2023-04-17T19:24:33.903Z,100546.97
2023-04-17T19:27:01.928Z,100555.97
2023-04-17T19:29:28.987Z,100554.28
2023-04-17T19:31:56.252Z,100547.25
2023-04-17T19:34:23.371Z,100556.84
2023-04-17T19:36:50.612Z,100543.84
2023-04-17T19:39:17.743Z,100544.38
2023-04-17T19:41:50.687Z,100538.31
2023-04-17T19:44:18.099Z,100543.00
2023-04-17T19:46:45.294Z,100554.69
2023-04-17T19:49:12.903Z,100552.59
2023-04-17T19:51:40.153Z,100550.44
2023-04-17T19:54:07.777Z,100543.53
2023-04-17T19:56:34.974Z,100550.44
2023-04-17T19:59:02.666Z,100542.66
2023-04-17T20:01:30.109Z,100549.34
2023-04-17T20:03:57.788Z,100543.84
2023-04-17T20:06:25.460Z,100539.72
2023-04-17T20:08:52.572Z,100561.53
2023-04-17T20:11:19.771Z,100554.53
2023-04-17T20:13:46.827Z,100564.22
2023-04-17T20:16:13.904Z,100552.88
2023-04-17T20:18:41.749Z,100554.69
2023-04-17T20:21:08.842Z,100563.31
2023-04-17T20:23:35.988Z,100568.38
2023-04-17T20:26:03.363Z,100555.53
2023-04-17T20:28:30.588Z,100560.44
2023-04-17T20:30:57.771Z,100574.25
2023-04-17T20:33:24.930Z,100570.84
2023-04-17T20:35:51.991Z,100560.97
2023-04-17T20:38:19.052Z,100565.97
2023-04-17T20:40:46.098Z,100557.22
2023-04-17T20:43:13.218Z,100571.16
2023-04-17T20:45:40.255Z,100559.06
2023-04-17T20:48:07.494Z,100558.81
2023-04-17T20:50:34.562Z,100546.22
2023-04-17T20:53:01.631Z,100547.31
2023-04-17T20:55:28.714Z,100533.38
2023-04-17T20:57:55.926Z,100526.84
2023-04-17T21:00:23.095Z,100513.28
2023-04-17T21:02:50.294Z,100511.09
2023-04-17T21:05:19.215Z,100496.81
2023-04-17T21:07:46.321Z,100499.88
2023-04-17T21:10:13.354Z,100498.03
2023-04-17T21:12:40.477Z,100505.03
2023-04-17T21:15:07.962Z,100510.09
2023-04-17T21:17:35.003Z,100510.25
2023-04-17T21:20:04.385Z,100487.63
2023-04-17T21:22:31.491Z,100499.59
2023-04-17T21:24:58.541Z,100495.34
2023-04-17T21:27:25.577Z,100489.56
2023-04-17T21:29:52.625Z,100480.16
2023-04-17T21:32:19.728Z,100497.84
2023-04-17T21:34:46.796Z,100487.53
2023-04-17T21:37:13.822Z,100496.84
2023-04-17T21:39:40.901Z,100485.81
2023-04-17T21:42:09.720Z,100496.13
2023-04-17T21:44:36.758Z,100492.00
2023-04-17T21:47:03.882Z,100499.03
2023-04-17T21:49:30.922Z,100500.50
2023-04-17T21:51:58.073Z,100498.81
2023-04-17T21:54:26.760Z,100499.91
2023-04-17T21:56:53.925Z,100508.47
2023-04-17T21:59:21.016Z,100511.13
2023-04-17T22:01:48.134Z,100517.72
2023-04-17T22:04:15.330Z,100523.38
2023-04-17T22:06:42.725Z,100519.66
2023-04-17T22:09:09.862Z,100529.06
2023-04-17T22:11:38.000Z,100519.38
2023-04-17T22:14:05.286Z,100524.25
2023-04-17T22:16:32.404Z,100520.56
2023-04-17T22:18:59.506Z,100522.28
2023-04-17T22:21:27.101Z,100521.19
2023-04-17T22:23:54.124Z,100518.91
2023-04-17T22:26:21.328Z,100511.75
2023-04-17T22:28:48.383Z,100508.69
2023-04-17T22:31:15.823Z,100513.22
2023-04-17T22:33:43.223Z,100518.63
2023-04-17T22:36:10.478Z,100515.97
2023-04-17T22:38:37.516Z,100521.50
2023-04-17T22:41:04.833Z,100514.47
2023-04-17T22:43:32.008Z,100520.09
2023-04-17T22:45:59.120Z,100520.94
2023-04-17T22:48:27.701Z,100508.22
2023-04-17T22:50:55.747Z,100513.91
2023-04-17T22:53:23.037Z,100507.72
2023-04-17T22:55:59.680Z,100504.53
2023-04-17T22:58:26.727Z,100499.81
2023-04-17T23:00:53.815Z,100514.34
2023-04-17T23:03:20.862Z,100498.97
2023-04-17T23:05:47.980Z,100505.75
2023-04-17T23:08:14.990Z,100506.13
2023-04-17T23:10:42.114Z,100502.50
2023-04-17T23:13:09.162Z,100503.47
2023-04-17T23:15:36.240Z,100499.56
2023-04-17T23:18:03.402Z,100495.31
2023-04-17T23:20:30.539Z,100494.47
2023-04-17T23:22:57.573Z,100483.19
2023-04-17T23:25:24.610Z,100481.66
2023-04-17T23:27:51.681Z,100491.19
2023-04-17T23:30:18.740Z,100483.34
2023-04-17T23:32:45.964Z,100473.81
2023-04-17T23:35:13.091Z,100475.47
2023-04-17T23:37:40.417Z,100473.81
2023-04-17T23:40:07.889Z,100466.03
2023-04-17T23:42:34.950Z,100456.63
2023-04-17T23:45:01.973Z,100461.56
2023-04-17T23:47:29.086Z,100446.94
2023-04-17T23:49:56.158Z,100448.97
2023-04-17T23:52:23.249Z,100441.09
2023-04-17T23:54:50.381Z,100440.38
2023-04-17T23:57:17.496Z,100435.03
2023-04-17T23:59:44.550Z,100424.03
